createdAt,value
2023-03-17T00:02:07.346Z,28.05
2023-03-17T00:04:35.360Z,28.67
2023-03-17T00:07:03.582Z,26.88
2023-03-17T00:09:31.641Z,23.95
2023-03-17T00:12:01.844Z,25.25
2023-03-17T00:14:29.891Z,26.15
2023-03-17T00:16:58.081Z,23.08
2023-03-17T00:19:32.400Z,24.05
2023-03-17T00:22:01.054Z,26.40
2023-03-17T00:24:29.879Z,25.67
2023-03-17T00:26:58.193Z,26.58
2023-03-17T00:29:28.095Z,26.35
2023-03-17T00:31:58.288Z,24.48
2023-03-17T00:34:27.383Z,27.15
2023-03-17T00:36:56.187Z,25.20
2023-03-17T00:39:25.509Z,26.95
2023-03-17T00:41:53.597Z,27.60
2023-03-17T00:44:21.715Z,27.33
2023-03-17T00:46:51.836Z,27.40
2023-03-17T00:49:22.197Z,26.20
2023-03-17T00:51:51.103Z,25.60
2023-03-17T00:54:20.866Z,27.95
2023-03-17T00:56:51.063Z,26.13
2023-03-17T00:59:27.269Z,26.85
2023-03-17T01:01:57.553Z,25.63
2023-03-17T01:04:25.826Z,23.98
2023-03-17T01:06:54.448Z,24.95
2023-03-17T01:09:26.734Z,29.60
2023-03-17T01:11:55.928Z,28.33
2023-03-17T01:14:24.925Z,36.97
2023-03-17T01:16:55.241Z,34.72
2023-03-17T01:19:24.910Z,39.40
2023-03-17T01:21:53.112Z,34.75
2023-03-17T01:24:21.252Z,38.13
2023-03-17T01:26:49.325Z,37.53
2023-03-17T01:29:17.638Z,37.97
2023-03-17T01:31:46.316Z,45.92
2023-03-17T01:34:14.415Z,43.08
2023-03-17T01:36:43.910Z,28.88
2023-03-17T01:39:12.986Z,21.83
2023-03-17T01:41:41.244Z,21.27
2023-03-17T01:44:16.041Z,23.35
2023-03-17T01:46:45.600Z,21.02
2023-03-17T01:49:21.168Z,18.95
2023-03-17T01:51:58.887Z,24.50
2023-03-17T01:54:35.897Z,28.67
2023-03-17T01:57:09.352Z,26.42
2023-03-17T01:59:43.741Z,42.75
2023-03-17T02:02:15.489Z,42.72
2023-03-17T02:04:43.749Z,42.88
2023-03-17T02:07:15.732Z,45.17
2023-03-17T02:09:44.800Z,45.25
2023-03-17T02:12:13.780Z,39.45
2023-03-17T02:14:41.879Z,41.17
2023-03-17T02:17:10.171Z,41.55
2023-03-17T02:19:38.986Z,41.70
2023-03-17T02:22:08.834Z,44.60
2023-03-17T02:24:40.574Z,39.05
2023-03-17T02:27:13.764Z,34.65
2023-03-17T02:29:42.656Z,35.22
2023-03-17T02:32:11.252Z,34.95
2023-03-17T02:34:39.847Z,33.38
2023-03-17T02:37:09.655Z,28.50
2023-03-17T02:39:38.373Z,27.63
2023-03-17T02:42:07.560Z,30.60
2023-03-17T02:44:35.698Z,33.97
2023-03-17T02:47:04.659Z,30.98
2023-03-17T02:49:33.529Z,32.20
2023-03-17T02:52:01.721Z,39.33
2023-03-17T02:54:31.570Z,36.35
2023-03-17T02:57:00.029Z,35.47
2023-03-17T02:59:28.355Z,38.05
2023-03-17T03:01:57.337Z,40.40
2023-03-17T03:04:26.357Z,37.22
2023-03-17T03:06:54.841Z,38.83
2023-03-17T03:09:23.099Z,41.50
2023-03-17T03:11:52.707Z,40.45
2023-03-17T03:14:20.904Z,38.25
2023-03-17T03:16:49.035Z,40.08
2023-03-17T03:19:17.671Z,46.08
2023-03-17T03:21:46.254Z,43.60
2023-03-17T03:24:14.511Z,33.88
2023-03-17T03:26:42.598Z,32.92
2023-03-17T03:29:12.327Z,25.83
2023-03-17T03:31:40.390Z,25.65
2023-03-17T03:34:08.578Z,22.30
2023-03-17T03:36:37.098Z,23.52
2023-03-17T03:39:05.343Z,22.67
2023-03-17T03:41:33.423Z,20.50
2023-03-17T03:44:01.602Z,19.95
2023-03-17T03:46:31.296Z,20.75
2023-03-17T03:48:59.439Z,19.05
2023-03-17T03:51:27.604Z,15.70
2023-03-17T03:53:55.759Z,17.38
2023-03-17T03:56:23.930Z,18.35
2023-03-17T03:58:52.441Z,16.27
2023-03-17T04:01:20.586Z,18.67
2023-03-17T04:03:50.206Z,16.15
2023-03-17T04:06:18.555Z,14.43
2023-03-17T04:08:46.832Z,15.40
2023-03-17T04:11:14.919Z,12.35
2023-03-17T04:13:43.137Z,11.93
2023-03-17T04:16:11.297Z,10.38
2023-03-17T04:18:39.463Z,9.35
2023-03-17T04:21:09.586Z,11.82
2023-03-17T04:23:37.691Z,9.68
2023-03-17T04:26:06.028Z,9.05
2023-03-17T04:28:34.196Z,8.32
2023-03-17T04:31:02.436Z,7.40
2023-03-17T04:33:30.645Z,9.57
2023-03-17T04:35:58.833Z,9.50
2023-03-17T04:38:28.283Z,9.73
2023-03-17T04:40:56.414Z,11.45
2023-03-17T04:43:24.572Z,8.65
2023-03-17T04:45:52.733Z,9.05
2023-03-17T04:48:21.156Z,9.15
2023-03-17T04:50:49.268Z,9.00
2023-03-17T04:53:17.826Z,8.73
2023-03-17T04:55:47.580Z,8.52
2023-03-17T04:58:29.818Z,10.55
2023-03-17T05:00:59.570Z,9.32
2023-03-17T05:03:28.642Z,10.30
2023-03-17T05:05:57.581Z,11.07
2023-03-17T05:08:26.390Z,10.45
2023-03-17T05:10:56.282Z,9.38
2023-03-17T05:13:24.892Z,11.52
2023-03-17T05:15:55.240Z,11.43
2023-03-17T05:18:26.387Z,12.32
2023-03-17T05:20:54.554Z,7.57
2023-03-17T05:23:23.268Z,7.68
2023-03-17T05:25:52.732Z,8.73
2023-03-17T05:28:22.248Z,8.93
2023-03-17T05:30:50.842Z,11.00
2023-03-17T05:33:18.997Z,12.05
2023-03-17T05:35:47.712Z,15.27
2023-03-17T05:38:16.534Z,39.75
2023-03-17T05:40:45.728Z,18.70
2023-03-17T05:43:14.095Z,12.02
2023-03-17T05:45:43.665Z,15.43
2023-03-17T05:48:12.469Z,14.40
2023-03-17T05:50:41.742Z,16.15
2023-03-17T05:53:10.687Z,15.07
2023-03-17T05:55:38.922Z,20.58
2023-03-17T05:58:06.944Z,11.63
2023-03-17T06:00:35.749Z,12.80
2023-03-17T06:03:05.670Z,12.50
2023-03-17T06:05:33.885Z,11.45
2023-03-17T06:08:02.106Z,10.48
2023-03-17T06:10:30.357Z,9.23
2023-03-17T06:12:59.045Z,9.57
2023-03-17T06:15:27.740Z,10.32
2023-03-17T06:17:55.722Z,11.25
2023-03-17T06:20:25.349Z,10.13
2023-03-17T06:23:03.851Z,10.77
2023-03-17T06:25:33.824Z,11.30
2023-03-17T06:28:03.827Z,8.95
2023-03-17T06:30:33.134Z,11.48
2023-03-17T06:33:02.097Z,11.57
2023-03-17T06:35:32.305Z,10.13
2023-03-17T06:38:01.167Z,9.48
2023-03-17T06:40:31.201Z,8.25
2023-03-17T06:42:59.718Z,7.47
2023-03-17T06:45:28.046Z,10.75
2023-03-17T06:47:56.319Z,7.28
2023-03-17T06:50:24.296Z,11.57
2023-03-17T06:52:53.712Z,10.15
2023-03-17T06:55:22.480Z,8.65
2023-03-17T06:57:51.480Z,7.85
2023-03-17T07:00:21.170Z,6.32
2023-03-17T07:02:49.619Z,7.07
2023-03-17T07:05:17.996Z,7.88
2023-03-17T07:07:46.438Z,9.40
2023-03-17T07:10:17.368Z,15.82
2023-03-17T07:12:45.906Z,8.88
2023-03-17T07:15:17.269Z,9.68
2023-03-17T07:17:46.875Z,5.65
2023-03-17T07:20:15.157Z,7.45
2023-03-17T07:22:43.201Z,8.93
2023-03-17T07:25:12.262Z,8.27
2023-03-17T07:27:41.730Z,8.13
2023-03-17T07:30:10.903Z,11.30
2023-03-17T07:32:38.889Z,7.93
2023-03-17T07:35:08.180Z,9.82
2023-03-17T07:37:36.647Z,10.90
2023-03-17T07:40:06.418Z,8.63
2023-03-17T07:42:34.533Z,13.75
2023-03-17T07:45:06.079Z,11.70
2023-03-17T07:47:34.080Z,10.13
2023-03-17T07:50:02.382Z,7.75
2023-03-17T07:52:30.830Z,7.22
2023-03-17T07:54:59.497Z,8.82
2023-03-17T07:57:27.646Z,9.80
2023-03-17T07:59:55.977Z,7.63
2023-03-17T08:02:25.484Z,10.52
2023-03-17T08:04:56.742Z,9.23
2023-03-17T08:07:24.798Z,9.98
2023-03-17T08:09:52.950Z,8.18
2023-03-17T08:12:21.988Z,11.57
2023-03-17T08:14:50.454Z,8.80
2023-03-17T08:17:18.827Z,10.57
2023-03-17T08:19:48.272Z,6.93
2023-03-17T08:22:16.294Z,9.73
2023-03-17T08:24:44.755Z,8.55
2023-03-17T08:27:13.569Z,7.00
2023-03-17T08:29:41.735Z,10.70
2023-03-17T08:32:10.538Z,9.70
2023-03-17T08:34:38.730Z,8.27
2023-03-17T08:37:11.311Z,9.02
2023-03-17T08:39:39.711Z,5.80
2023-03-17T08:42:08.334Z,6.25
2023-03-17T08:44:36.413Z,5.82
2023-03-17T08:47:05.022Z,6.80
2023-03-17T08:49:36.666Z,3.92
2023-03-17T08:52:05.217Z,3.97
2023-03-17T08:54:36.106Z,5.85
2023-03-17T08:57:04.286Z,7.40
2023-03-17T08:59:32.865Z,8.65
2023-03-17T09:02:01.123Z,7.43
2023-03-17T09:04:29.184Z,12.35
2023-03-17T09:07:04.798Z,6.78
2023-03-17T09:09:35.746Z,6.20
2023-03-17T09:12:06.416Z,5.32
2023-03-17T09:14:42.891Z,6.72
2023-03-17T09:17:11.956Z,6.75
2023-03-17T09:19:40.553Z,7.88
2023-03-17T09:22:08.849Z,7.00
2023-03-17T09:24:38.357Z,9.60
2023-03-17T09:27:06.491Z,7.40
2023-03-17T09:29:34.917Z,8.40
2023-03-17T09:32:02.952Z,7.85
2023-03-17T09:34:31.474Z,6.70
2023-03-17T09:36:59.955Z,9.07
2023-03-17T09:39:30.358Z,8.18
2023-03-17T09:42:24.382Z,6.47
2023-03-17T09:45:13.551Z,9.35
2023-03-17T09:47:57.437Z,6.88
2023-03-17T09:50:28.416Z,7.38
2023-03-17T09:52:58.569Z,7.18
2023-03-17T09:55:30.396Z,7.53
2023-03-17T09:58:03.468Z,8.70
2023-03-17T10:00:31.977Z,6.70
2023-03-17T10:03:00.301Z,5.88
2023-03-17T10:05:31.521Z,6.63
2023-03-17T10:08:10.841Z,7.57
2023-03-17T10:10:48.495Z,10.25
2023-03-17T10:13:28.995Z,9.02
2023-03-17T10:16:00.111Z,5.15
2023-03-17T10:18:31.458Z,6.53
2023-03-17T10:21:03.449Z,7.68
2023-03-17T10:23:36.475Z,9.52
2023-03-17T10:26:26.193Z,6.15
2023-03-17T10:28:56.068Z,5.57
2023-03-17T10:31:30.823Z,8.63
2023-03-17T10:34:08.572Z,6.07
2023-03-17T10:36:40.243Z,7.43
2023-03-17T10:39:10.951Z,4.97
2023-03-17T10:41:41.969Z,6.88
2023-03-17T10:44:22.109Z,5.70
2023-03-17T10:46:56.465Z,8.45
2023-03-17T10:49:26.855Z,4.13
2023-03-17T10:51:55.684Z,6.15
2023-03-17T10:54:26.547Z,7.18
2023-03-17T10:57:02.558Z,6.80
2023-03-17T10:59:38.807Z,8.07
2023-03-17T11:02:19.443Z,6.28
2023-03-17T11:04:48.453Z,5.10
2023-03-17T11:07:19.529Z,6.50
2023-03-17T11:09:51.716Z,4.60
2023-03-17T11:12:25.627Z,6.18
2023-03-17T11:15:01.242Z,5.75
2023-03-17T11:17:41.501Z,4.68
2023-03-17T11:20:26.434Z,4.25
2023-03-17T11:23:02.247Z,5.35
2023-03-17T11:25:32.511Z,4.25
2023-03-17T11:28:16.214Z,4.85
2023-03-17T11:30:55.865Z,4.35
2023-03-17T11:33:34.895Z,5.22
2023-03-17T11:36:09.695Z,4.30
2023-03-17T11:38:41.934Z,13.10
2023-03-17T11:41:35.794Z,5.88
2023-03-17T11:44:47.754Z,4.80
2023-03-17T11:47:37.237Z,6.60
2023-03-17T11:50:17.880Z,5.22
2023-03-17T11:52:59.117Z,6.18
2023-03-17T11:55:37.755Z,8.10
2023-03-17T11:58:10.669Z,5.57
2023-03-17T12:00:45.540Z,4.22
2023-03-17T12:03:20.759Z,6.50
2023-03-17T12:05:55.786Z,6.18
2023-03-17T12:10:56.893Z,3.95
2023-03-17T12:13:31.185Z,5.65
2023-03-17T12:16:06.748Z,4.25
2023-03-17T12:18:39.966Z,5.13
2023-03-17T12:21:14.712Z,4.85
2023-03-17T12:23:49.661Z,6.93
2023-03-17T12:26:21.210Z,4.35
2023-03-17T12:28:55.626Z,4.63
2023-03-17T12:31:29.234Z,4.90
2023-03-17T12:34:06.527Z,6.10
2023-03-17T12:36:36.920Z,6.88
2023-03-17T12:39:10.566Z,4.53
2023-03-17T12:41:52.291Z,5.60
2023-03-17T12:44:34.493Z,4.53
2023-03-17T12:47:36.816Z,3.83
2023-03-17T12:50:37.953Z,6.60
2023-03-17T12:53:26.722Z,4.38
2023-03-17T12:55:58.003Z,2.70
2023-03-17T12:58:36.540Z,3.60
2023-03-17T13:01:17.457Z,3.55
2023-03-17T13:04:02.509Z,4.68
2023-03-17T13:06:39.945Z,4.30
2023-03-17T13:09:43.549Z,4.32
2023-03-17T13:12:44.972Z,4.55
2023-03-17T13:15:24.645Z,4.03
2023-03-17T13:17:53.928Z,3.58
2023-03-17T13:20:22.532Z,2.78
2023-03-17T13:23:13.821Z,3.92
2023-03-17T13:25:53.521Z,2.67
2023-03-17T13:28:27.560Z,3.25
2023-03-17T13:31:12.447Z,2.30
2023-03-17T13:33:46.591Z,3.45
2023-03-17T13:39:19.398Z,3.58
2023-03-17T13:42:18.606Z,3.78
2023-03-17T13:45:07.468Z,3.00
2023-03-17T13:47:38.396Z,3.80
2023-03-17T13:50:10.530Z,3.15
2023-03-17T13:52:44.111Z,3.63
2023-03-17T13:55:36.134Z,4.63
2023-03-17T13:58:26.380Z,4.60
2023-03-17T14:01:00.908Z,4.80
2023-03-17T14:03:35.237Z,6.13
2023-03-17T14:06:06.866Z,5.95
2023-03-17T14:08:36.732Z,6.57
2023-03-17T14:11:18.069Z,6.75
2023-03-17T14:13:53.028Z,9.25
2023-03-17T14:16:27.109Z,10.63
2023-03-17T14:18:59.488Z,7.75
2023-03-17T14:21:32.377Z,8.10
2023-03-17T14:24:04.091Z,8.07
2023-03-17T14:26:34.063Z,8.70
2023-03-17T14:29:04.839Z,10.43
2023-03-17T14:31:32.998Z,8.65
2023-03-17T14:34:03.202Z,7.97
2023-03-17T14:36:34.720Z,8.32
2023-03-17T14:39:02.711Z,9.68
2023-03-17T14:41:32.833Z,8.23
2023-03-17T14:44:03.352Z,7.18
2023-03-17T14:46:34.163Z,8.68
2023-03-17T14:49:04.797Z,10.23
2023-03-17T14:51:36.229Z,8.38
2023-03-17T14:54:06.472Z,8.60
2023-03-17T14:56:38.084Z,12.68
2023-03-17T14:59:09.693Z,6.88
2023-03-17T15:01:40.279Z,10.05
2023-03-17T15:04:13.223Z,7.28
2023-03-17T15:06:50.445Z,9.35
2023-03-17T15:09:20.364Z,19.40
2023-03-17T15:11:49.645Z,12.07
2023-03-17T15:14:22.820Z,14.13
2023-03-17T15:16:53.044Z,7.03
2023-03-17T15:19:24.091Z,7.38
2023-03-17T15:21:52.326Z,9.25
2023-03-17T15:24:27.026Z,7.22
2023-03-17T15:27:05.753Z,7.22
2023-03-17T15:29:35.382Z,7.38
2023-03-17T15:32:12.143Z,5.88
2023-03-17T15:34:40.150Z,5.55
2023-03-17T15:37:16.196Z,5.63
2023-03-17T15:39:44.226Z,5.05
2023-03-17T15:42:12.497Z,4.85
2023-03-17T15:44:42.022Z,4.50
2023-03-17T15:47:15.184Z,4.38
2023-03-17T15:49:43.559Z,3.67
2023-03-17T15:52:25.025Z,6.22
2023-03-17T15:54:54.074Z,6.13
2023-03-17T15:57:22.688Z,22.33
2023-03-17T15:59:52.637Z,10.38
2023-03-17T16:02:30.633Z,11.80
2023-03-17T16:04:59.461Z,13.23
2023-03-17T16:07:27.510Z,8.18
2023-03-17T16:09:55.830Z,6.70
2023-03-17T16:12:24.082Z,9.68
2023-03-17T16:14:53.628Z,13.65
2023-03-17T16:17:26.981Z,10.57
2023-03-17T16:19:56.057Z,11.63
2023-03-17T16:22:39.064Z,16.77
2023-03-17T16:25:18.229Z,21.70
2023-03-17T16:27:46.756Z,16.98
2023-03-17T16:30:20.445Z,15.23
2023-03-17T16:32:49.330Z,24.42
2023-03-17T16:35:20.107Z,19.65
2023-03-17T16:37:48.897Z,28.08
2023-03-17T16:40:22.741Z,26.48
2023-03-17T16:42:51.665Z,26.95
2023-03-17T16:45:28.800Z,30.48
2023-03-17T16:47:57.855Z,25.67
2023-03-17T16:50:27.697Z,17.50
2023-03-17T16:52:56.055Z,16.10
2023-03-17T16:55:25.456Z,22.20
2023-03-17T16:57:56.664Z,104.10
2023-03-17T17:00:30.026Z,81.82
2023-03-17T17:02:58.656Z,40.10
2023-03-17T17:05:28.589Z,31.70
2023-03-17T17:07:58.337Z,44.75
2023-03-17T17:10:28.580Z,100.03
2023-03-17T17:12:56.897Z,41.38
2023-03-17T17:15:26.712Z,34.60
2023-03-17T17:17:58.410Z,27.45
2023-03-17T17:20:30.979Z,29.38
2023-03-17T17:22:59.678Z,35.83
2023-03-17T17:25:28.053Z,30.88
2023-03-17T17:27:56.476Z,33.53
2023-03-17T17:30:28.168Z,79.05
2023-03-17T17:32:58.068Z,33.97
2023-03-17T17:35:27.289Z,44.67
2023-03-17T17:37:55.881Z,34.00
2023-03-17T17:40:25.632Z,60.45
2023-03-17T17:42:54.500Z,80.45
2023-03-17T17:45:23.170Z,106.25
2023-03-17T17:47:52.743Z,85.07
2023-03-17T17:50:24.458Z,82.07
2023-03-17T17:52:52.992Z,85.50
2023-03-17T17:55:21.280Z,80.55
2023-03-17T17:57:52.315Z,106.97
2023-03-17T18:00:21.768Z,80.13
2023-03-17T18:02:50.692Z,94.13
2023-03-17T18:05:20.364Z,76.60
2023-03-17T18:07:48.500Z,75.75
2023-03-17T18:10:19.309Z,68.85
2023-03-17T18:12:47.408Z,53.53
2023-03-17T18:15:15.676Z,41.90
2023-03-17T18:17:44.078Z,47.17
2023-03-17T18:20:13.738Z,40.55
2023-03-17T18:22:43.384Z,42.38
2023-03-17T18:25:14.318Z,46.10
2023-03-17T18:27:43.505Z,78.25
2023-03-17T18:30:14.736Z,76.97
2023-03-17T18:32:44.315Z,84.20
2023-03-17T18:35:17.299Z,259.30
2023-03-17T18:37:47.006Z,51.63
2023-03-17T18:40:18.768Z,49.40
2023-03-17T18:42:47.796Z,97.82
2023-03-17T18:45:16.376Z,91.05
2023-03-17T18:47:44.485Z,67.68
2023-03-17T18:50:15.634Z,71.85
2023-03-17T18:52:44.936Z,64.90
2023-03-17T18:55:16.584Z,65.20
2023-03-17T18:57:46.514Z,73.35
2023-03-17T19:00:17.472Z,75.65
2023-03-17T19:02:46.306Z,68.70
2023-03-17T19:05:15.464Z,72.10
2023-03-17T19:07:43.578Z,72.47
2023-03-17T19:10:15.177Z,103.32
2023-03-17T19:12:45.476Z,98.80
2023-03-17T19:15:14.694Z,126.35
2023-03-17T19:17:43.219Z,135.32
2023-03-17T19:20:13.245Z,119.38
2023-03-17T19:22:41.734Z,86.15
2023-03-17T19:25:11.475Z,85.28
2023-03-17T19:27:41.422Z,84.68
2023-03-17T19:30:10.732Z,84.40
2023-03-17T19:32:38.866Z,90.25
2023-03-17T19:35:08.692Z,83.97
2023-03-17T19:37:38.208Z,120.95
2023-03-17T19:40:08.198Z,148.05
2023-03-17T19:42:36.350Z,92.68
2023-03-17T19:45:09.224Z,154.10
2023-03-17T19:47:37.392Z,201.68
2023-03-17T19:50:05.870Z,87.35
2023-03-17T19:52:33.950Z,69.07
2023-03-17T19:55:02.085Z,88.30
2023-03-17T19:57:31.249Z,68.95
2023-03-17T20:00:00.269Z,61.92
2023-03-17T20:02:29.760Z,62.15
2023-03-17T20:04:57.706Z,65.55
2023-03-17T20:07:25.647Z,77.53
2023-03-17T20:09:54.237Z,68.72
2023-03-17T20:12:22.581Z,70.03
2023-03-17T20:14:51.137Z,64.35
2023-03-17T20:17:20.080Z,62.05
2023-03-17T20:19:49.695Z,58.25
2023-03-17T20:22:17.677Z,51.83
2023-03-17T20:24:46.038Z,44.22
2023-03-17T20:27:15.406Z,50.53
2023-03-17T20:29:44.065Z,32.58
2023-03-17T20:32:14.881Z,36.70
2023-03-17T20:34:43.746Z,29.60
2023-03-17T20:37:14.885Z,37.45
2023-03-17T20:39:44.108Z,54.17
2023-03-17T20:42:14.643Z,38.30
2023-03-17T20:44:43.101Z,43.58
2023-03-17T20:47:11.472Z,65.72
2023-03-17T20:49:39.503Z,56.97
2023-03-17T20:52:08.696Z,91.07
2023-03-17T20:54:38.947Z,103.38
2023-03-17T20:57:07.331Z,61.70
2023-03-17T20:59:36.389Z,66.45
2023-03-17T21:02:05.021Z,66.70
2023-03-17T21:04:33.172Z,73.65
2023-03-17T21:07:01.224Z,77.82
2023-03-17T21:09:29.395Z,70.15
2023-03-17T21:11:58.772Z,75.70
2023-03-17T21:14:26.745Z,79.35
2023-03-17T21:16:55.185Z,67.90
2023-03-17T21:19:23.525Z,60.97
2023-03-17T21:21:51.539Z,64.80
2023-03-17T21:24:27.583Z,63.05
2023-03-17T21:26:55.915Z,59.28
2023-03-17T21:29:25.353Z,49.30
2023-03-17T21:31:54.309Z,68.28
2023-03-17T21:34:24.433Z,73.70
2023-03-17T21:36:52.876Z,77.20
2023-03-17T21:39:21.624Z,67.00
2023-03-17T21:41:51.005Z,77.88
2023-03-17T21:44:20.109Z,77.20
2023-03-17T21:46:50.969Z,78.25
2023-03-17T21:49:19.668Z,79.20
2023-03-17T21:51:48.298Z,77.63
2023-03-17T21:54:16.500Z,65.95
2023-03-17T21:56:44.788Z,68.28
2023-03-17T21:59:14.066Z,66.97
2023-03-17T22:01:43.658Z,70.88
2023-03-17T22:04:14.209Z,68.40
2023-03-17T22:06:42.526Z,71.03
2023-03-17T22:09:11.740Z,73.28
2023-03-17T22:11:39.918Z,62.80
2023-03-17T22:14:08.094Z,70.50
2023-03-17T22:16:36.356Z,68.90
2023-03-17T22:19:04.588Z,75.70
2023-03-17T22:21:34.128Z,74.53
2023-03-17T22:24:02.133Z,74.70
2023-03-17T22:26:30.469Z,75.90
2023-03-17T22:28:58.505Z,72.95
2023-03-17T22:31:29.643Z,73.50
2023-03-17T22:33:59.384Z,67.40
2023-03-17T22:36:28.168Z,66.60
2023-03-17T22:38:58.434Z,69.78
2023-03-17T22:41:29.968Z,77.75
2023-03-17T22:43:58.417Z,69.22
2023-03-17T22:46:27.336Z,63.58
2023-03-17T22:48:55.902Z,50.30
2023-03-17T22:51:26.736Z,49.95
2023-03-17T22:53:57.511Z,50.30
2023-03-17T22:56:26.595Z,48.17
2023-03-17T22:58:55.205Z,44.33
2023-03-17T23:01:25.906Z,46.05
2023-03-17T23:03:54.402Z,44.30
2023-03-17T23:06:22.984Z,46.03
2023-03-17T23:08:50.983Z,54.95
2023-03-17T23:11:23.199Z,54.88
2023-03-17T23:13:52.724Z,51.80
2023-03-17T23:16:22.147Z,48.75
2023-03-17T23:18:50.905Z,47.30
2023-03-17T23:21:23.876Z,47.72
2023-03-17T23:23:52.003Z,39.55
2023-03-17T23:26:22.031Z,42.25
2023-03-17T23:28:50.129Z,40.35
2023-03-17T23:31:19.590Z,40.88
2023-03-17T23:33:48.013Z,42.75
2023-03-17T23:36:16.341Z,42.67
2023-03-17T23:38:45.568Z,38.78
2023-03-17T23:41:14.651Z,44.65
2023-03-17T23:43:44.116Z,39.75
2023-03-17T23:46:13.962Z,36.03
2023-03-17T23:48:43.019Z,41.00
2023-03-17T23:51:12.519Z,43.83
2023-03-17T23:53:41.880Z,37.65
2023-03-17T23:56:11.583Z,39.92
2023-03-17T23:58:39.816Z,41.05
